Time;durP1;ratioP1;P1;durP2;ratioP2;P2;SDS_P1;SDS_P2;PMS_P1;PMS_P2;Temp;Humidity;BMP_temperature;BMP_pressure;BME280_temperature;BME280_humidity;BME280_pressure;Samples;Min_cycle;Max_cycle;Signal;HPM_P1;HPM_P2
2023/03/13 00:01:18;;;;;;;0.40;0.30;;;8.00;99.90;;;;;;5072981;28;20929;-79
2023/03/13 00:03:47;;;;;;;0.40;0.30;;;8.00;99.90;;;;;;5073258;28;20456;-79
2023/03/13 00:06:14;;;;;;;0.33;0.33;;;8.10;99.90;;;;;;5073269;28;20449;-79
2023/03/13 00:08:41;;;;;;;0.30;0.30;;;8.10;99.90;;;;;;5073062;28;20469;-79
2023/03/13 00:11:09;;;;;;;0.40;0.30;;;8.10;99.90;;;;;;5073160;28;20486;-79
2023/03/13 00:13:36;;;;;;;0.30;0.30;;;8.10;99.90;;;;;;5073159;28;20449;-79
2023/03/13 00:16:06;;;;;;;0.30;0.30;;;8.10;99.90;;;;;;5072797;28;20961;-79
2023/03/13 00:18:33;;;;;;;1.17;0.53;;;8.10;99.90;;;;;;5072752;28;20472;-79
2023/03/13 00:21:02;;;;;;;0.70;0.70;;;8.20;99.90;;;;;;5073065;28;20449;-79
2023/03/13 00:23:30;;;;;;;2.40;0.30;;;8.20;99.90;;;;;;5072780;28;20429;-79
2023/03/13 00:25:58;;;;;;;0.97;0.50;;;8.20;99.90;;;;;;5073083;28;20790;-79
2023/03/13 00:28:24;;;;;;;0.50;0.30;;;8.20;99.90;;;;;;5072808;28;20501;-79
2023/03/13 00:30:51;;;;;;;1.27;0.50;;;8.20;99.90;;;;;;5076843;28;20481;-79
2023/03/13 00:33:18;;;;;;;3.27;0.50;;;8.30;99.90;;;;;;5076909;28;20449;-79
2023/03/13 00:35:44;;;;;;;0.50;0.30;;;8.30;99.90;;;;;;5076866;28;20855;-79
2023/03/13 00:38:12;;;;;;;1.13;0.30;;;8.30;99.90;;;;;;5076780;28;20469;-79
2023/03/13 00:40:39;;;;;;;0.40;0.30;;;8.30;99.90;;;;;;5076495;28;20441;-79
2023/03/13 00:43:06;;;;;;;0.30;0.30;;;8.30;99.90;;;;;;5076750;28;20877;-79
2023/03/13 00:45:33;;;;;;;0.40;0.30;;;8.30;99.90;;;;;;5076360;28;20488;-79
2023/03/13 00:47:59;;;;;;;3.03;0.40;;;8.40;99.90;;;;;;5076225;28;20997;-79
2023/03/13 00:50:26;;;;;;;0.60;0.43;;;8.40;99.90;;;;;;5076234;28;20473;-79
2023/03/13 00:52:53;;;;;;;0.40;0.40;;;8.40;99.90;;;;;;5076555;28;20441;-79
2023/03/13 00:55:21;;;;;;;0.40;0.30;;;8.40;99.90;;;;;;5076157;28;20442;-79
2023/03/13 00:57:48;;;;;;;0.33;0.23;;;8.50;99.90;;;;;;5076383;28;20476;-79
2023/03/13 01:00:16;;;;;;;0.30;0.20;;;8.50;99.90;;;;;;5076076;28;20933;-79
2023/03/13 01:02:43;;;;;;;0.70;0.60;;;8.50;99.90;;;;;;5076037;28;20434;-79
2023/03/13 01:05:12;;;;;;;1.80;0.40;;;8.50;99.90;;;;;;5076205;28;20449;-79
2023/03/13 01:07:38;;;;;;;0.40;0.40;;;8.50;99.90;;;;;;5076094;28;20492;-79
2023/03/13 01:10:06;;;;;;;0.53;0.40;;;8.50;99.90;;;;;;5076088;28;20534;-79
2023/03/13 01:12:35;;;;;;;0.30;0.20;;;8.50;99.90;;;;;;5076111;28;20446;-79
2023/03/13 01:15:01;;;;;;;0.40;0.30;;;8.50;99.90;;;;;;5076037;28;20441;-79
2023/03/13 01:17:28;;;;;;;0.80;0.70;;;8.60;99.90;;;;;;5075971;28;20811;-79
2023/03/13 01:19:56;;;;;;;1.80;0.40;;;8.60;99.90;;;;;;5075641;28;20441;-79
2023/03/13 01:22:22;;;;;;;2.80;0.40;;;8.60;99.90;;;;;;5075938;28;20453;-79
2023/03/13 01:24:51;;;;;;;0.50;0.30;;;8.50;99.90;;;;;;5075876;28;20452;-79
2023/03/13 01:27:18;;;;;;;2.20;0.37;;;8.50;99.90;;;;;;5075496;28;20454;-79
2023/03/13 01:29:46;;;;;;;0.30;0.27;;;8.50;99.90;;;;;;5075672;28;20488;-79
2023/03/13 01:32:12;;;;;;;0.30;0.20;;;8.50;99.90;;;;;;5075804;28;20449;-79
2023/03/13 01:34:40;;;;;;;0.40;0.30;;;8.60;99.90;;;;;;5075731;28;20442;-79
2023/03/13 01:37:06;;;;;;;0.40;0.30;;;8.60;99.90;;;;;;5075729;28;20469;-79
2023/03/13 01:39:33;;;;;;;0.30;0.20;;;8.60;99.90;;;;;;5075298;28;20473;-79
2023/03/13 01:42:00;;;;;;;2.50;0.40;;;8.60;99.90;;;;;;5074819;28;20445;-79
2023/03/13 01:44:27;;;;;;;3.43;0.43;;;8.60;99.90;;;;;;5075583;28;20448;-79
2023/03/13 01:46:55;;;;;;;0.30;0.27;;;8.60;99.90;;;;;;5075084;28;20488;-79
2023/03/13 01:49:25;;;;;;;1.23;0.40;;;8.60;99.90;;;;;;5075399;28;20476;-79
2023/03/13 01:51:55;;;;;;;0.30;0.20;;;8.60;99.90;;;;;;5075459;28;20521;-79
2023/03/13 01:54:24;;;;;;;0.70;0.40;;;8.70;99.90;;;;;;5076025;28;20430;-79
2023/03/13 01:56:56;;;;;;;1.37;0.53;;;8.70;99.90;;;;;;5075385;28;20442;-79
2023/03/13 01:59:27;;;;;;;0.43;0.30;;;8.70;99.90;;;;;;5075321;28;20476;-79
2023/03/13 02:01:59;;;;;;;0.40;0.27;;;8.70;99.90;;;;;;5075351;28;20444;-79
2023/03/13 02:04:30;;;;;;;0.30;0.30;;;8.70;99.90;;;;;;5075276;28;20436;-79
2023/03/13 02:07:00;;;;;;;0.47;0.30;;;8.80;99.90;;;;;;5075409;28;20893;-79
2023/03/13 02:09:30;;;;;;;0.30;0.30;;;8.80;99.90;;;;;;5075016;28;20465;-79
2023/03/13 02:12:02;;;;;;;0.30;0.30;;;8.70;99.90;;;;;;5075120;28;20434;-79
2023/03/13 02:14:33;;;;;;;0.40;0.30;;;8.70;99.90;;;;;;5074766;28;20882;-79
2023/03/13 02:17:02;;;;;;;0.43;0.43;;;8.60;99.90;;;;;;5075011;28;20433;-79
2023/03/13 02:19:37;;;;;;;0.30;0.20;;;8.60;99.90;;;;;;5074838;28;20477;-79
2023/03/13 02:22:14;;;;;;;0.30;0.20;;;8.70;99.90;;;;;;5074915;28;20814;-79
2023/03/13 02:24:46;;;;;;;2.30;0.30;;;8.60;99.90;;;;;;5074586;28;20441;-79
2023/03/13 02:27:14;;;;;;;0.50;0.30;;;8.60;99.90;;;;;;5074798;28;20429;-79
2023/03/13 02:29:42;;;;;;;0.30;0.20;;;8.70;99.90;;;;;;5074353;28;20454;-79
2023/03/13 02:32:09;;;;;;;0.30;0.30;;;8.60;99.90;;;;;;5074334;28;20979;-79
2023/03/13 02:34:40;;;;;;;0.40;0.30;;;8.70;99.90;;;;;;5074615;28;20456;-79
2023/03/13 02:37:09;;;;;;;0.40;0.40;;;8.80;99.90;;;;;;5074632;28;20434;-79
2023/03/13 02:39:38;;;;;;;0.40;0.30;;;8.80;99.90;;;;;;5074476;28;20474;-79
2023/03/13 02:42:05;;;;;;;4.63;0.33;;;8.80;99.90;;;;;;5074471;28;20457;-79
2023/03/13 02:44:38;;;;;;;0.30;0.30;;;8.90;99.90;;;;;;5074646;28;20445;-79
2023/03/13 02:47:04;;;;;;;0.50;0.50;;;8.90;99.90;;;;;;5073942;28;20480;-79
2023/03/13 02:49:31;;;;;;;0.40;0.30;;;9.00;99.90;;;;;;5074257;28;20466;-79
2023/03/13 02:52:03;;;;;;;0.30;0.30;;;9.00;99.90;;;;;;5073331;28;21024;-79
2023/03/13 02:54:32;;;;;;;0.30;0.30;;;9.00;99.90;;;;;;5073901;28;20430;-79
2023/03/13 02:57:01;;;;;;;0.30;0.30;;;8.90;99.90;;;;;;5074182;28;20475;-80
2023/03/13 02:59:28;;;;;;;0.30;0.30;;;8.90;99.90;;;;;;5073882;28;20473;-79
2023/03/13 03:01:56;;;;;;;0.40;0.37;;;8.90;99.90;;;;;;5073821;28;20461;-79
2023/03/13 03:04:25;;;;;;;0.97;0.70;;;8.90;99.90;;;;;;5073705;28;20928;-79
2023/03/13 03:06:52;;;;;;;0.30;0.30;;;8.90;99.90;;;;;;5073936;28;20563;-77
2023/03/13 03:09:20;;;;;;;0.30;0.30;;;8.90;99.90;;;;;;5073809;28;20481;-77
2023/03/13 03:11:47;;;;;;;0.30;0.27;;;8.90;99.90;;;;;;5073784;28;20496;-77
2023/03/13 03:14:14;;;;;;;0.30;0.30;;;9.00;99.90;;;;;;5074574;28;20832;-76
2023/03/13 03:16:41;;;;;;;0.30;0.23;;;9.00;99.90;;;;;;5073828;28;20823;-77
2023/03/13 03:19:10;;;;;;;1.60;0.30;;;9.00;99.90;;;;;;5073396;28;20461;-77
2023/03/13 03:21:37;;;;;;;0.30;0.30;;;9.10;99.90;;;;;;5073360;28;20437;-77
2023/03/13 03:24:04;;;;;;;0.30;0.30;;;9.00;99.90;;;;;;5073605;28;20449;-76
2023/03/13 03:26:30;;;;;;;0.60;0.47;;;9.00;99.90;;;;;;5073595;28;20457;-77
2023/03/13 03:28:57;;;;;;;0.30;0.23;;;9.00;99.90;;;;;;5073280;28;20453;-76
2023/03/13 03:31:24;;;;;;;0.33;0.30;;;9.00;99.90;;;;;;5073451;28;20488;-76
2023/03/13 03:33:51;;;;;;;0.40;0.40;;;9.10;99.90;;;;;;5074321;28;20449;-76
2023/03/13 03:36:21;;;;;;;0.40;0.30;;;9.10;99.90;;;;;;5073311;28;20799;-77
2023/03/13 03:38:48;;;;;;;0.30;0.30;;;9.00;99.90;;;;;;5073450;28;20477;-77
2023/03/13 03:41:16;;;;;;;0.30;0.30;;;9.10;99.90;;;;;;5073491;28;20462;-76
2023/03/13 03:43:43;;;;;;;0.30;0.20;;;9.10;99.90;;;;;;5073472;28;20449;-77
2023/03/13 03:46:09;;;;;;;0.30;0.20;;;9.30;99.90;;;;;;5072981;28;20476;-76
2023/03/13 03:48:37;;;;;;;0.30;0.20;;;9.20;99.90;;;;;;5073322;28;20478;-76
2023/03/13 03:51:04;;;;;;;0.30;0.30;;;9.40;99.90;;;;;;5073003;28;20509;-76
2023/03/13 03:53:33;;;;;;;0.30;0.30;;;9.50;99.90;;;;;;5073025;28;20445;-76
2023/03/13 03:55:59;;;;;;;0.30;0.30;;;9.60;99.90;;;;;;5073068;28;20434;-76
2023/03/13 03:58:26;;;;;;;0.33;0.30;;;9.60;99.90;;;;;;5072869;28;20470;-76
2023/03/13 04:00:56;;;;;;;0.30;0.20;;;9.70;99.90;;;;;;5073236;28;20453;-76
2023/03/13 04:03:22;;;;;;;0.30;0.30;;;9.80;99.90;;;;;;5072853;28;20449;-76
2023/03/13 04:05:49;;;;;;;0.30;0.30;;;9.90;99.90;;;;;;5073247;28;20450;-76
2023/03/13 04:08:16;;;;;;;0.30;0.30;;;9.90;99.90;;;;;;5073136;28;20473;-76
2023/03/13 04:10:44;;;;;;;1.50;0.33;;;10.00;99.90;;;;;;5073084;28;20488;-76
2023/03/13 04:13:11;;;;;;;0.30;0.20;;;10.00;99.90;;;;;;5072827;28;20446;-76
2023/03/13 04:15:38;;;;;;;0.30;0.30;;;10.00;99.90;;;;;;5073125;28;20458;-76
2023/03/13 04:18:05;;;;;;;0.30;0.30;;;10.10;99.90;;;;;;5073063;28;20465;-76
2023/03/13 04:20:32;;;;;;;0.30;0.30;;;10.20;99.90;;;;;;5073088;28;20454;-76
2023/03/13 04:22:59;;;;;;;0.40;0.30;;;10.10;99.90;;;;;;5072726;28;20811;-76
2023/03/13 04:25:25;;;;;;;2.20;0.40;;;10.20;99.90;;;;;;5073083;28;20457;-76
2023/03/13 04:27:53;;;;;;;0.70;0.40;;;10.20;99.90;;;;;;5072957;28;20825;-76
2023/03/13 04:30:20;;;;;;;0.30;0.30;;;10.20;99.90;;;;;;5072610;28;20446;-76
2023/03/13 04:32:47;;;;;;;0.30;0.30;;;10.20;99.90;;;;;;5072628;28;20948;-75
2023/03/13 04:35:14;;;;;;;0.30;0.20;;;10.20;99.90;;;;;;5072966;28;20445;-76
2023/03/13 04:37:40;;;;;;;0.30;0.30;;;10.20;99.90;;;;;;5072560;28;20477;-77
2023/03/13 04:40:08;;;;;;;0.30;0.23;;;10.20;99.90;;;;;;5072916;28;20449;-77
2023/03/13 04:42:35;;;;;;;0.40;0.30;;;10.20;99.90;;;;;;5072886;28;20480;-76
2023/03/13 04:45:03;;;;;;;0.40;0.30;;;10.20;99.90;;;;;;5072651;28;20489;-77
2023/03/13 04:47:30;;;;;;;0.30;0.30;;;10.10;99.90;;;;;;5072488;28;20925;-77
2023/03/13 04:49:56;;;;;;;0.30;0.30;;;10.10;99.90;;;;;;5072818;28;20457;-77
2023/03/13 04:52:23;;;;;;;0.77;0.30;;;10.20;99.90;;;;;;5072364;28;21001;-77
2023/03/13 04:54:50;;;;;;;0.40;0.30;;;10.10;99.90;;;;;;5072719;28;20462;-77
2023/03/13 04:57:20;;;;;;;0.30;0.30;;;10.10;99.90;;;;;;5072560;28;20488;-76
2023/03/13 04:59:47;;;;;;;0.40;0.30;;;10.10;99.90;;;;;;5072421;28;20441;-76
2023/03/13 05:02:15;;;;;;;3.43;0.30;;;10.10;99.90;;;;;;5072647;28;20453;-77
2023/03/13 05:04:41;;;;;;;0.30;0.20;;;10.10;99.90;;;;;;5072346;28;20942;-77
2023/03/13 05:07:08;;;;;;;0.47;0.40;;;10.10;99.90;;;;;;5072564;28;20460;-77
2023/03/13 05:09:35;;;;;;;0.30;0.30;;;10.10;99.90;;;;;;5072193;28;20476;-77
2023/03/13 05:12:02;;;;;;;0.37;0.30;;;10.10;99.90;;;;;;5072485;28;20489;-76
2023/03/13 05:14:28;;;;;;;0.37;0.30;;;10.10;99.90;;;;;;5072507;28;20453;-76
2023/03/13 05:16:55;;;;;;;0.30;0.20;;;10.10;99.90;;;;;;5074694;28;20445;-76
2023/03/13 05:19:23;;;;;;;0.30;0.20;;;10.10;99.90;;;;;;5075639;28;21008;-76
2023/03/13 05:21:50;;;;;;;0.30;0.23;;;10.20;99.90;;;;;;5075987;28;20457;-76
2023/03/13 05:24:16;;;;;;;0.30;0.30;;;10.20;99.90;;;;;;5075613;28;20452;-76
2023/03/13 05:26:43;;;;;;;0.30;0.30;;;10.20;99.90;;;;;;5075889;28;20454;-76
2023/03/13 05:29:10;;;;;;;0.30;0.30;;;10.20;99.90;;;;;;5075877;28;20540;-76
2023/03/13 05:31:36;;;;;;;0.30;0.30;;;10.30;99.90;;;;;;5075850;28;20481;-76
2023/03/13 05:34:03;;;;;;;0.40;0.30;;;10.30;99.90;;;;;;5075867;28;20434;-76
2023/03/13 05:36:31;;;;;;;4.00;0.50;;;10.30;99.90;;;;;;5075775;28;20449;-76
2023/03/13 05:38:58;;;;;;;0.30;0.30;;;10.30;99.90;;;;;;5075416;28;20469;-77
2023/03/13 05:41:24;;;;;;;0.30;0.20;;;10.30;99.90;;;;;;5075658;28;20468;-77
2023/03/13 05:43:51;;;;;;;0.30;0.27;;;10.30;99.90;;;;;;5075623;28;20466;-77
2023/03/13 05:46:18;;;;;;;0.80;0.40;;;10.40;99.90;;;;;;5075263;28;20473;-76
2023/03/13 05:48:45;;;;;;;0.30;0.20;;;10.40;99.90;;;;;;5075528;28;20468;-77
2023/03/13 05:51:12;;;;;;;0.37;0.30;;;10.40;99.90;;;;;;5075597;28;20542;-77
2023/03/13 05:53:40;;;;;;;0.30;0.27;;;10.50;99.90;;;;;;5075198;28;20445;-76
2023/03/13 05:56:07;;;;;;;0.40;0.40;;;10.50;99.90;;;;;;5075393;28;20452;-76
2023/03/13 05:58:34;;;;;;;0.30;0.30;;;10.50;99.90;;;;;;5075255;28;20492;-77
2023/03/13 06:01:06;;;;;;;0.40;0.30;;;10.50;99.90;;;;;;5075286;28;20524;-77
2023/03/13 06:03:33;;;;;;;0.30;0.30;;;10.50;99.90;;;;;;5074988;28;20928;-77
2023/03/13 06:06:00;;;;;;;0.30;0.20;;;10.60;99.90;;;;;;5075177;28;20453;-77
2023/03/13 06:08:27;;;;;;;0.33;0.30;;;10.50;99.90;;;;;;5075030;28;20469;-77
2023/03/13 06:10:55;;;;;;;0.30;0.20;;;10.60;99.90;;;;;;5074799;28;20507;-77
2023/03/13 06:13:21;;;;;;;0.30;0.30;;;10.80;99.90;;;;;;5075052;28;20445;-77
2023/03/13 06:15:52;;;;;;;0.30;0.30;;;10.70;99.90;;;;;;5074613;28;20798;-76
2023/03/13 06:18:18;;;;;;;0.30;0.30;;;10.80;99.90;;;;;;5074830;28;20477;-76
2023/03/13 06:20:45;;;;;;;0.30;0.20;;;10.80;99.90;;;;;;5074880;28;20460;-77
2023/03/13 06:23:12;;;;;;;0.30;0.30;;;10.80;99.90;;;;;;5074818;28;20445;-77
2023/03/13 06:25:38;;;;;;;0.60;0.40;;;10.80;99.90;;;;;;5074613;28;20440;-77
2023/03/13 06:28:06;;;;;;;0.30;0.30;;;10.90;99.90;;;;;;5074090;28;20980;-77
2023/03/13 06:30:33;;;;;;;0.60;0.40;;;10.90;99.90;;;;;;5074660;28;20445;-76
2023/03/13 06:33:00;;;;;;;0.40;0.30;;;10.90;99.90;;;;;;5074610;28;20477;-76
2023/03/13 06:35:27;;;;;;;0.30;0.30;;;11.00;99.90;;;;;;5074591;28;20453;-76
2023/03/13 06:37:54;;;;;;;0.40;0.30;;;11.10;99.90;;;;;;5074185;28;20980;-76
2023/03/13 06:40:20;;;;;;;0.40;0.30;;;11.10;99.90;;;;;;5074542;28;20794;-76
2023/03/13 06:42:47;;;;;;;0.30;0.30;;;11.10;99.90;;;;;;5074529;28;20442;-77
2023/03/13 06:45:15;;;;;;;0.30;0.30;;;11.10;99.90;;;;;;5074083;28;20892;-77
2023/03/13 06:47:42;;;;;;;0.30;0.30;;;11.20;99.90;;;;;;5074282;28;20577;-76
2023/03/13 06:50:10;;;;;;;0.40;0.33;;;11.20;99.90;;;;;;5074292;28;20452;-76
2023/03/13 06:52:37;;;;;;;0.30;0.30;;;11.20;99.90;;;;;;5073840;28;20481;-76
2023/03/13 06:55:05;;;;;;;0.30;0.20;;;11.20;99.90;;;;;;5074281;28;20520;-76
2023/03/13 06:57:31;;;;;;;0.30;0.27;;;11.20;99.90;;;;;;5074118;28;20456;-76
2023/03/13 06:59:58;;;;;;;0.30;0.20;;;11.20;99.90;;;;;;5073894;28;20438;-77
2023/03/13 07:02:26;;;;;;;0.30;0.30;;;11.20;99.90;;;;;;5074058;28;20468;-76
2023/03/13 07:04:53;;;;;;;0.30;0.30;;;11.10;99.90;;;;;;5073759;28;20430;-76
2023/03/13 07:07:19;;;;;;;0.30;0.20;;;11.20;99.90;;;;;;5074009;28;20788;-76
2023/03/13 07:09:46;;;;;;;1.23;0.37;;;11.20;99.90;;;;;;5073886;28;20453;-76
2023/03/13 07:12:13;;;;;;;0.30;0.30;;;11.30;99.90;;;;;;5073803;28;20485;-76
2023/03/13 07:14:39;;;;;;;0.70;0.30;;;11.40;99.90;;;;;;5073594;28;20789;-76
2023/03/13 07:17:06;;;;;;;0.30;0.30;;;11.40;99.90;;;;;;5073791;28;20430;-76
2023/03/13 07:19:34;;;;;;;0.40;0.40;;;11.50;99.90;;;;;;5073671;28;20844;-76
2023/03/13 07:22:01;;;;;;;0.30;0.30;;;11.50;99.90;;;;;;5074430;28;20437;-76
2023/03/13 07:24:28;;;;;;;0.30;0.20;;;11.50;99.90;;;;;;5073387;28;20955;-76
2023/03/13 07:26:54;;;;;;;0.30;0.30;;;11.60;99.90;;;;;;5073338;28;20967;-76
2023/03/13 07:29:21;;;;;;;0.30;0.30;;;11.60;99.90;;;;;;5073505;28;20470;-76
2023/03/13 07:31:48;;;;;;;0.30;0.30;;;11.70;99.90;;;;;;5073446;28;20552;-76
2023/03/13 07:34:14;;;;;;;0.30;0.20;;;11.70;99.90;;;;;;5073594;28;20454;-76
2023/03/13 07:36:42;;;;;;;0.30;0.30;;;11.80;99.90;;;;;;5073293;28;20437;-76
2023/03/13 07:39:09;;;;;;;0.30;0.20;;;11.90;99.90;;;;;;5072787;28;20481;-76
2023/03/13 07:41:39;;;;;;;0.43;0.40;;;11.80;99.90;;;;;;5073546;28;20452;-78
2023/03/13 07:44:06;;;;;;;0.30;0.20;;;11.80;99.90;;;;;;5073401;28;20830;-77
2023/03/13 07:46:33;;;;;;;0.37;0.30;;;11.90;99.90;;;;;;5073236;28;20823;-77
2023/03/13 07:49:00;;;;;;;0.60;0.57;;;11.90;99.90;;;;;;5074086;28;20831;-77
2023/03/13 07:51:27;;;;;;;0.50;0.30;;;11.90;99.90;;;;;;5073334;28;20452;-77
2023/03/13 07:53:55;;;;;;;0.30;0.27;;;12.00;99.90;;;;;;5073441;28;20790;-77
2023/03/13 07:56:23;;;;;;;0.40;0.30;;;12.00;99.90;;;;;;5073345;28;20441;-77
2023/03/13 07:58:51;;;;;;;0.40;0.30;;;12.10;99.90;;;;;;5072993;28;20842;-77
2023/03/13 08:01:20;;;;;;;0.40;0.33;;;12.10;99.90;;;;;;5073290;28;20445;-77
2023/03/13 08:03:49;;;;;;;0.30;0.30;;;12.00;99.90;;;;;;5073253;28;20437;-78
2023/03/13 08:06:17;;;;;;;0.80;0.47;;;12.10;99.90;;;;;;5073239;28;20453;-77
2023/03/13 08:08:45;;;;;;;0.37;0.30;;;12.10;99.90;;;;;;5073164;28;20468;-77
2023/03/13 08:11:15;;;;;;;0.30;0.20;;;12.20;99.90;;;;;;5072940;28;20967;-77
2023/03/13 08:13:42;;;;;;;0.30;0.20;;;12.40;99.90;;;;;;5073136;28;20504;-77
2023/03/13 08:16:11;;;;;;;0.40;0.30;;;12.50;99.90;;;;;;5073200;28;20449;-78
2023/03/13 08:18:39;;;;;;;0.50;0.30;;;12.70;99.90;;;;;;5073143;28;20472;-77
2023/03/13 08:21:08;;;;;;;0.40;0.30;;;13.00;99.90;;;;;;5072896;28;20437;-77
2023/03/13 08:23:36;;;;;;;0.30;0.30;;;13.20;99.90;;;;;;5072998;28;20495;-77
2023/03/13 08:26:05;;;;;;;0.40;0.30;;;13.30;99.90;;;;;;5073074;28;20456;-77
2023/03/13 08:28:33;;;;;;;0.30;0.30;;;13.40;99.90;;;;;;5072681;28;20476;-77
2023/03/13 08:31:07;;;;;;;0.40;0.30;;;13.40;99.90;;;;;;5072971;28;20453;-77
2023/03/13 08:33:34;;;;;;;0.30;0.20;;;13.40;99.90;;;;;;5072960;28;20465;-77
2023/03/13 08:36:07;;;;;;;5.03;0.50;;;13.50;99.90;;;;;;5072679;28;20840;-78
2023/03/13 08:38:34;;;;;;;0.30;0.30;;;13.40;99.90;;;;;;5072804;28;20465;-77
2023/03/13 08:41:01;;;;;;;0.40;0.30;;;13.40;99.90;;;;;;5072792;28;20456;-77
2023/03/13 08:43:27;;;;;;;0.50;0.50;;;13.30;99.90;;;;;;5072820;28;20445;-78
2023/03/13 08:45:56;;;;;;;0.30;0.30;;;13.20;99.90;;;;;;5072548;28;20485;-78
2023/03/13 08:48:23;;;;;;;0.50;0.30;;;13.20;99.90;;;;;;5072572;28;20445;-78
2023/03/13 08:51:02;;;;;;;0.40;0.30;;;13.10;99.90;;;;;;5074976;28;20448;-78
2023/03/13 08:53:29;;;;;;;0.40;0.30;;;13.00;99.90;;;;;;5076484;28;20511;-78
2023/03/13 08:55:56;;;;;;;0.30;0.30;;;13.10;99.90;;;;;;5076216;28;20449;-77
2023/03/13 08:58:23;;;;;;;0.80;0.80;;;13.10;99.90;;;;;;5076735;28;20979;-77
2023/03/13 09:00:50;;;;;;;0.50;0.50;;;13.10;99.90;;;;;;5076426;28;20441;-77
2023/03/13 09:03:18;;;;;;;0.40;0.30;;;13.30;99.90;;;;;;5076369;28;20445;-78
2023/03/13 09:05:46;;;;;;;0.40;0.30;;;13.40;99.90;;;;;;5076614;28;20437;-78
2023/03/13 09:08:14;;;;;;;0.40;0.30;;;13.40;99.90;;;;;;5075863;28;20496;-77
2023/03/13 09:10:41;;;;;;;0.30;0.30;;;13.50;99.90;;;;;;5076298;28;20453;-77
2023/03/13 09:13:08;;;;;;;0.30;0.20;;;13.50;99.90;;;;;;5076214;28;20477;-77
2023/03/13 09:15:34;;;;;;;0.40;0.30;;;13.60;99.90;;;;;;5076170;28;20445;-77
2023/03/13 09:18:01;;;;;;;0.30;0.30;;;13.70;99.90;;;;;;5075700;28;20830;-78
2023/03/13 09:20:29;;;;;;;0.60;0.43;;;13.90;99.90;;;;;;5076162;28;20483;-78
2023/03/13 09:22:56;;;;;;;0.30;0.30;;;13.90;99.90;;;;;;5076030;28;20452;-78
2023/03/13 09:25:23;;;;;;;0.30;0.20;;;14.10;99.90;;;;;;5076057;28;20445;-77
2023/03/13 09:27:49;;;;;;;0.40;0.30;;;14.30;99.90;;;;;;5075685;28;20458;-78
2023/03/13 09:30:17;;;;;;;0.40;0.30;;;14.40;99.90;;;;;;5076300;28;20410;-78
2023/03/13 09:32:43;;;;;;;0.37;0.27;;;14.60;99.90;;;;;;5075853;28;20489;-77
2023/03/13 09:35:10;;;;;;;0.40;0.30;;;14.70;99.90;;;;;;5075906;28;20464;-78
2023/03/13 09:37:38;;;;;;;0.40;0.30;;;15.00;99.90;;;;;;5075691;28;20956;-77
2023/03/13 09:40:07;;;;;;;0.40;0.30;;;15.40;99.90;;;;;;5075820;28;20445;-78
2023/03/13 09:42:45;;;;;;;0.63;0.33;;;15.70;99.90;;;;;;5075735;28;20446;-78
2023/03/13 09:45:16;;;;;;;0.50;0.47;;;17.10;99.90;;;;;;5075525;28;20481;-78
2023/03/13 09:47:46;;;;;;;0.40;0.30;;;18.70;99.90;;;;;;5076060;28;20807;-78
2023/03/13 09:50:18;;;;;;;0.37;0.30;;;19.80;99.90;;;;;;5075572;28;20437;-78
2023/03/13 09:52:51;;;;;;;0.60;0.40;;;21.00;99.90;;;;;;5075516;28;20476;-78
2023/03/13 09:55:21;;;;;;;0.37;0.30;;;21.80;99.90;;;;;;5075543;28;20454;-78
2023/03/13 09:57:53;;;;;;;0.63;0.40;;;21.70;99.90;;;;;;5075476;28;20469;-78
2023/03/13 10:00:24;;;;;;;0.80;0.70;;;21.60;99.90;;;;;;5075382;28;20528;-78
2023/03/13 10:02:56;;;;;;;0.40;0.40;;;22.20;99.90;;;;;;5074781;28;20429;-78
2023/03/13 10:05:25;;;;;;;0.40;0.40;;;22.60;99.90;;;;;;5075115;28;20935;-78
2023/03/13 10:07:57;;;;;;;0.50;0.50;;;22.80;99.90;;;;;;5075112;28;20461;-78
2023/03/13 10:10:33;;;;;;;0.40;0.40;;;22.80;99.90;;;;;;5075258;28;20293;-78
2023/03/13 10:13:08;;;;;;;0.43;0.40;;;23.10;99.90;;;;;;5074868;28;20464;-78
2023/03/13 10:15:40;;;;;;;0.40;0.40;;;23.20;99.30;;;;;;5074856;28;20434;-78
2023/03/13 10:18:15;;;;;;;0.50;0.40;;;23.50;98.10;;;;;;5075032;28;20241;-78
2023/03/13 10:20:43;;;;;;;0.40;0.35;;;23.70;96.90;;;;;;5075106;28;20191;-78
2023/03/13 10:23:16;;;;;;;0.67;0.50;;;23.90;97.50;;;;;;5074703;28;20198;-78
2023/03/13 10:25:43;;;;;;;0.50;0.40;;;23.90;95.50;;;;;;5074972;28;20244;-78
2023/03/13 10:28:12;;;;;;;0.50;0.50;;;23.90;95.60;;;;;;5074748;28;20218;-76
2023/03/13 10:30:43;;;;;;;0.60;0.50;;;23.90;95.20;;;;;;5074497;28;20567;-76
2023/03/13 10:33:22;;;;;;;0.40;0.40;;;24.10;94.90;;;;;;5074602;28;20203;-76
2023/03/13 10:36:01;;;;;;;0.40;0.40;;;23.90;93.50;;;;;;5074669;28;20209;-76
2023/03/13 10:38:33;;;;;;;0.40;0.40;;;23.70;93.40;;;;;;5074614;28;20226;-76
2023/03/13 10:41:02;;;;;;;0.60;0.60;;;23.60;93.40;;;;;;5074682;28;20183;-75
2023/03/13 10:43:29;;;;;;;0.73;0.40;;;24.30;93.50;;;;;;5074352;28;20202;-76
2023/03/13 10:45:56;;;;;;;0.40;0.40;;;24.90;92.20;;;;;;5074087;28;20239;-76
2023/03/13 10:48:25;;;;;;;3.75;0.38;;;25.40;90.80;;;;;;5074508;28;20613;-76
2023/03/13 10:50:56;;;;;;;0.40;0.30;;;25.20;90.70;;;;;;5074112;28;20207;-76
2023/03/13 10:53:26;;;;;;;0.50;0.50;;;24.70;90.00;;;;;;5074276;28;20207;-76
2023/03/13 10:55:57;;;;;;;0.45;0.45;;;23.90;90.20;;;;;;5074277;28;20210;-76
2023/03/13 10:58:29;;;;;;;0.77;0.47;;;23.50;91.30;;;;;;5073912;28;20720;-76
2023/03/13 11:01:17;;;;;;;0.50;0.47;;;23.50;91.90;;;;;;5073939;28;20198;-77
2023/03/13 11:03:44;;;;;;;1.30;0.40;;;24.30;91.20;;;;;;5074254;28;20187;-76
2023/03/13 11:06:27;;;;;;;0.60;0.40;;;25.40;90.20;;;;;;5073794;28;20206;-76
2023/03/13 11:09:05;;;;;;;0.40;0.40;;;26.20;86.90;;;;;;5074055;28;20218;-76
2023/03/13 11:11:44;;;;;;;1.05;0.50;;;26.40;83.30;;;;;;5073736;28;20569;-77
2023/03/13 11:14:15;;;;;;;0.45;0.45;;;25.90;82.60;;;;;;5073052;28;20215;-77
2023/03/13 11:16:48;;;;;;;0.73;0.50;;;25.30;84.00;;;;;;5074693;28;20206;-77
2023/03/13 11:19:54;;;;;;;0.40;0.40;;;24.40;85.10;;;;;;5073797;28;20229;-76
2023/03/13 11:22:29;;;;;;;0.60;0.60;;;23.60;87.90;;;;;;5068647;28;20206;-75
2023/03/13 11:25:12;;;;;;;0.60;0.40;;;23.10;90.10;;;;;;5073505;28;20642;-76
2023/03/13 11:27:48;;;;;;;3.03;0.50;;;22.70;90.60;;;;;;5073770;28;20186;-77
2023/03/13 11:30:30;;;;;;;4.97;0.70;;;22.20;90.30;;;;;;5073430;28;20190;-76
2023/03/13 11:33:01;;;;;;;0.43;0.43;;;21.40;92.00;;;;;;5073619;28;20469;-77
2023/03/13 11:35:39;;;;;;;0.50;0.50;;;21.00;93.10;;;;;;5073410;28;20917;-76
2023/03/13 11:38:11;;;;;;;0.40;0.40;;;20.60;93.40;;;;;;5073566;28;20460;-77
2023/03/13 11:40:48;;;;;;;0.40;0.40;;;20.40;94.20;;;;;;5073611;28;20420;-77
2023/03/13 11:43:30;;;;;;;0.47;0.43;;;20.20;95.30;;;;;;5073588;28;20471;-77
2023/03/13 11:46:13;;;;;;;3.13;0.57;;;20.20;96.00;;;;;;5073206;28;20863;-76
2023/03/13 11:49:01;;;;;;;0.90;0.40;;;20.30;95.50;;;;;;5073456;28;20488;-76
2023/03/13 11:51:38;;;;;;;2.73;0.40;;;20.20;95.00;;;;;;5073505;28;20429;-76
2023/03/13 11:54:33;;;;;;;1.50;0.50;;;20.00;95.00;;;;;;5073361;28;20479;-77
2023/03/13 11:57:05;;;;;;;1.53;0.50;;;19.80;95.20;;;;;;5071365;28;20449;-76
2023/03/13 11:59:40;;;;;;;0.47;0.30;;;19.70;95.50;;;;;;5074146;28;20492;-77
2023/03/13 12:02:20;;;;;;;0.40;0.30;;;19.70;96.10;;;;;;5072984;28;20437;-77
2023/03/13 12:04:51;;;;;;;0.30;0.30;;;19.50;96.00;;;;;;5073350;28;20433;-77
2023/03/13 12:07:25;;;;;;;0.70;0.60;;;19.40;96.20;;;;;;5073329;28;20429;-77
2023/03/13 12:09:55;;;;;;;0.40;0.30;;;19.30;95.60;;;;;;5073327;28;20441;-77
2023/03/13 12:12:34;;;;;;;0.50;0.40;;;19.10;96.50;;;;;;5072997;28;20425;-77
2023/03/13 12:15:14;;;;;;;0.80;0.57;;;19.10;97.30;;;;;;5073254;28;20429;-77
2023/03/13 12:17:46;;;;;;;3.13;0.50;;;19.00;97.20;;;;;;5073105;28;20469;-77
2023/03/13 12:20:20;;;;;;;0.40;0.30;;;19.00;97.50;;;;;;5073197;28;20461;-77
2023/03/13 12:22:56;;;;;;;0.30;0.30;;;19.00;97.60;;;;;;5072787;28;20948;-77
2023/03/13 12:25:28;;;;;;;0.50;0.33;;;19.00;98.20;;;;;;5075122;28;20413;-77
2023/03/13 12:27:59;;;;;;;0.80;0.40;;;19.00;98.10;;;;;;5077124;28;20476;-77
2023/03/13 12:30:36;;;;;;;0.50;0.40;;;19.00;98.00;;;;;;5077172;28;20432;-77
2023/03/13 12:33:13;;;;;;;0.40;0.40;;;19.00;97.80;;;;;;5076980;28;20473;-77
2023/03/13 12:35:46;;;;;;;0.30;0.30;;;19.10;98.00;;;;;;5077014;28;20443;-77
2023/03/13 12:38:19;;;;;;;0.57;0.40;;;19.00;97.80;;;;;;5076851;28;20480;-77
2023/03/13 12:40:51;;;;;;;0.77;0.43;;;19.10;97.30;;;;;;5076639;28;20939;-77
2023/03/13 12:43:21;;;;;;;0.50;0.30;;;19.00;96.60;;;;;;5076856;28;20430;-77
2023/03/13 12:46:06;;;;;;;1.23;0.40;;;19.00;97.40;;;;;;5076443;28;20476;-77
2023/03/13 12:48:50;;;;;;;0.40;0.40;;;18.90;96.70;;;;;;5077556;28;20791;-77
2023/03/13 12:51:30;;;;;;;0.87;0.50;;;18.80;96.80;;;;;;5076679;28;20453;-77
2023/03/13 12:54:15;;;;;;;0.40;0.30;;;18.80;97.40;;;;;;5076558;28;20471;-77
2023/03/13 12:57:13;;;;;;;1.37;0.40;;;18.80;97.40;;;;;;5076317;28;20901;-77
2023/03/13 12:59:44;;;;;;;0.40;0.30;;;18.70;96.80;;;;;;5076223;28;21010;-77
2023/03/13 13:02:18;;;;;;;0.40;0.30;;;18.70;96.90;;;;;;5076733;28;20441;-77